createdAt,value
2022-10-09T00:00:48.112Z,4.97
2022-10-09T00:03:18.289Z,4.53
2022-10-09T00:05:46.436Z,5.10
2022-10-09T00:08:14.279Z,4.60
2022-10-09T00:10:42.970Z,4.13
2022-10-09T00:13:11.141Z,4.47
2022-10-09T00:15:40.355Z,4.67
2022-10-09T00:18:08.987Z,5.53
2022-10-09T00:20:39.084Z,4.60
2022-10-09T00:23:07.718Z,4.40
2022-10-09T00:25:36.855Z,4.67
2022-10-09T00:28:05.937Z,4.73
2022-10-09T00:30:33.704Z,4.77
2022-10-09T00:33:01.761Z,3.90
2022-10-09T00:35:29.452Z,4.73
2022-10-09T00:37:58.869Z,4.50
2022-10-09T00:40:26.569Z,4.47
2022-10-09T00:42:57.193Z,3.10
2022-10-09T00:45:25.281Z,3.50
2022-10-09T00:47:55.436Z,3.50
2022-10-09T00:50:27.761Z,3.30
2022-10-09T00:53:01.163Z,3.20
2022-10-09T00:55:29.877Z,4.30
2022-10-09T00:58:00.340Z,3.37
2022-10-09T01:00:28.452Z,3.63
2022-10-09T01:02:56.545Z,3.20
2022-10-09T01:05:33.829Z,4.00
2022-10-09T01:08:11.389Z,4.83
2022-10-09T01:10:44.234Z,4.43
2022-10-09T01:13:23.955Z,6.87
2022-10-09T01:15:55.826Z,7.07
2022-10-09T01:18:30.942Z,6.13
2022-10-09T01:21:01.845Z,6.57
2022-10-09T01:23:50.133Z,6.37
2022-10-09T01:26:36.162Z,5.27
2022-10-09T01:29:08.925Z,6.07
2022-10-09T01:31:40.509Z,6.33
2022-10-09T01:34:09.435Z,5.10
2022-10-09T01:36:39.456Z,5.60
2022-10-09T01:39:10.119Z,4.90
2022-10-09T01:41:38.220Z,5.20
2022-10-09T01:44:17.856Z,5.43
2022-10-09T01:46:45.627Z,4.67
2022-10-09T01:49:22.813Z,4.50
2022-10-09T01:51:57.509Z,4.93
2022-10-09T01:54:33.466Z,4.50
2022-10-09T01:57:05.829Z,4.80
2022-10-09T01:59:39.113Z,4.80
2022-10-09T02:02:08.572Z,4.73
2022-10-09T02:04:40.189Z,4.70
2022-10-09T02:07:07.965Z,4.53
2022-10-09T02:09:38.490Z,4.73
2022-10-09T02:12:10.941Z,3.97
2022-10-09T02:14:40.509Z,5.47
2022-10-09T02:17:13.905Z,5.10
2022-10-09T02:19:48.589Z,5.00
2022-10-09T02:22:19.439Z,4.10
2022-10-09T02:24:47.859Z,4.33
2022-10-09T02:27:17.086Z,4.63
2022-10-09T02:29:47.539Z,4.83
2022-10-09T02:32:15.877Z,4.60
2022-10-09T02:34:44.198Z,4.43
2022-10-09T02:37:12.125Z,4.80
2022-10-09T02:39:39.845Z,4.43
2022-10-09T02:42:07.594Z,5.10
2022-10-09T02:44:35.313Z,4.20
2022-10-09T02:47:04.421Z,4.57
2022-10-09T02:49:32.113Z,4.40
2022-10-09T02:51:59.916Z,4.87
2022-10-09T02:54:27.612Z,5.23
2022-10-09T02:56:55.300Z,5.27
2022-10-09T02:59:23.061Z,5.17
2022-10-09T03:01:50.839Z,5.63
2022-10-09T03:04:19.965Z,4.93
2022-10-09T03:06:47.702Z,5.13
2022-10-09T03:09:15.441Z,5.90
2022-10-09T03:11:43.216Z,5.33
2022-10-09T03:14:11.230Z,5.77
2022-10-09T03:16:38.934Z,7.00
2022-10-09T03:19:06.715Z,6.53
2022-10-09T03:21:35.933Z,6.50
2022-10-09T03:24:03.644Z,6.23
2022-10-09T03:26:31.352Z,6.43
2022-10-09T03:28:59.149Z,6.50
2022-10-09T03:31:50.497Z,6.17
2022-10-09T03:34:15.808Z,6.63
2022-10-09T03:36:44.917Z,5.47
2022-10-09T03:39:12.829Z,5.97
2022-10-09T03:41:40.537Z,5.77
2022-10-09T03:44:08.312Z,5.33
2022-10-09T03:46:36.167Z,5.67
2022-10-09T03:49:03.946Z,5.93
2022-10-09T03:51:31.694Z,5.90
2022-10-09T03:54:00.810Z,5.37
2022-10-09T03:56:28.489Z,5.90
2022-10-09T03:58:56.237Z,6.70
2022-10-09T04:01:23.990Z,6.13
2022-10-09T04:03:51.781Z,5.90
2022-10-09T04:06:19.472Z,5.87
2022-10-09T04:08:47.157Z,6.37
2022-10-09T04:11:16.252Z,6.17
2022-10-09T04:13:43.958Z,6.60
2022-10-09T04:16:12.829Z,5.87
2022-10-09T04:18:41.093Z,6.03
2022-10-09T04:21:09.018Z,6.00
2022-10-09T04:23:36.754Z,6.20
2022-10-09T04:26:04.503Z,5.50
2022-10-09T04:28:34.016Z,5.30
2022-10-09T04:31:02.897Z,5.73
2022-10-09T04:33:30.660Z,6.20
2022-10-09T04:35:58.796Z,5.63
2022-10-09T04:38:26.752Z,5.03
2022-10-09T04:40:58.372Z,6.13
2022-10-09T04:43:26.419Z,5.73
2022-10-09T04:45:55.975Z,6.20
2022-10-09T04:48:24.150Z,6.20
2022-10-09T04:50:52.048Z,6.07
2022-10-09T04:53:19.784Z,5.70
2022-10-09T04:55:47.696Z,5.60
2022-10-09T04:58:15.639Z,5.13
2022-10-09T05:00:44.670Z,5.40
2022-10-09T05:03:14.149Z,4.73
2022-10-09T05:05:42.010Z,4.60
2022-10-09T05:08:09.750Z,5.20
2022-10-09T05:10:37.477Z,5.20
2022-10-09T05:13:05.217Z,5.30
2022-10-09T05:15:33.038Z,5.23
2022-10-09T05:18:00.732Z,4.83
2022-10-09T05:20:29.918Z,5.20
2022-10-09T05:22:57.632Z,5.50
2022-10-09T05:25:25.380Z,4.83
2022-10-09T05:27:53.106Z,4.80
2022-10-09T05:30:20.804Z,5.50
2022-10-09T05:32:48.770Z,5.37
2022-10-09T05:35:16.716Z,4.73
2022-10-09T05:37:46.637Z,6.27
2022-10-09T05:40:14.393Z,5.50
2022-10-09T05:42:42.109Z,4.60
2022-10-09T05:45:11.350Z,4.53
2022-10-09T05:47:39.078Z,5.10
2022-10-09T05:50:07.570Z,4.87
2022-10-09T05:52:36.482Z,4.83
2022-10-09T05:55:06.198Z,4.17
2022-10-09T05:57:34.110Z,5.37
2022-10-09T06:00:01.793Z,5.03
2022-10-09T06:02:29.528Z,4.27
2022-10-09T06:04:57.289Z,4.47
2022-10-09T06:07:24.982Z,5.37
2022-10-09T06:09:52.673Z,4.60
2022-10-09T06:12:21.752Z,5.10
2022-10-09T06:14:49.433Z,4.67
2022-10-09T06:17:17.122Z,4.33
2022-10-09T06:19:44.845Z,4.30
2022-10-09T06:22:12.531Z,4.73
2022-10-09T06:24:40.358Z,5.93
2022-10-09T06:27:08.165Z,5.77
2022-10-09T06:29:37.499Z,6.80
2022-10-09T06:32:05.257Z,5.03
2022-10-09T06:34:32.962Z,4.97
2022-10-09T06:37:00.679Z,4.73
2022-10-09T06:39:28.459Z,4.33
2022-10-09T06:41:56.145Z,5.17
2022-10-09T06:44:23.910Z,4.87
2022-10-09T06:46:54.301Z,4.80
2022-10-09T06:49:22.101Z,4.47
2022-10-09T06:51:49.800Z,5.33
2022-10-09T06:54:17.680Z,6.30
2022-10-09T06:56:45.636Z,4.33
2022-10-09T06:59:13.863Z,4.67
2022-10-09T07:01:41.719Z,5.10
2022-10-09T07:04:14.676Z,4.40
2022-10-09T07:06:44.052Z,4.30
2022-10-09T07:09:13.993Z,4.53
2022-10-09T07:11:43.941Z,4.60
2022-10-09T07:14:13.778Z,4.97
2022-10-09T07:16:43.111Z,4.37
2022-10-09T07:19:13.202Z,4.23
2022-10-09T07:21:42.770Z,4.57
2022-10-09T07:24:11.515Z,4.70
2022-10-09T07:26:41.039Z,4.17
2022-10-09T07:29:10.077Z,3.50
2022-10-09T07:31:37.868Z,3.70
2022-10-09T07:34:06.239Z,3.50
2022-10-09T07:36:35.820Z,3.60
2022-10-09T07:39:04.542Z,3.50
2022-10-09T07:41:32.375Z,4.07
2022-10-09T07:44:00.284Z,3.90
2022-10-09T07:46:33.211Z,3.80
2022-10-09T07:49:01.943Z,3.77
2022-10-09T07:51:30.614Z,3.80
2022-10-09T07:54:00.726Z,3.67
2022-10-09T07:56:30.311Z,3.40
2022-10-09T07:59:00.095Z,3.67
2022-10-09T08:01:29.362Z,3.40
2022-10-09T08:03:57.647Z,3.20
2022-10-09T08:06:25.811Z,3.60
2022-10-09T08:08:55.739Z,3.07
2022-10-09T08:11:26.202Z,3.23
2022-10-09T08:13:54.250Z,3.47
2022-10-09T08:16:23.519Z,3.33
2022-10-09T08:18:55.875Z,3.30
2022-10-09T08:21:23.878Z,3.50
2022-10-09T08:23:55.037Z,3.90
2022-10-09T08:26:25.789Z,3.53
2022-10-09T08:28:55.026Z,3.77
2022-10-09T08:31:23.752Z,3.60
2022-10-09T08:33:54.402Z,3.70
2022-10-09T08:36:22.916Z,3.40
2022-10-09T08:38:50.836Z,3.60
2022-10-09T08:41:29.343Z,3.20
2022-10-09T08:44:02.724Z,3.23
2022-10-09T08:46:36.780Z,3.30
2022-10-09T08:49:06.135Z,3.23
2022-10-09T08:51:37.298Z,3.23
2022-10-09T08:54:11.804Z,3.17
2022-10-09T08:56:40.878Z,3.27
2022-10-09T08:59:10.871Z,3.10
2022-10-09T09:01:45.530Z,3.50
2022-10-09T09:04:45.023Z,3.10
2022-10-09T09:07:17.825Z,3.17
2022-10-09T09:09:53.516Z,2.97
2022-10-09T09:12:30.587Z,3.50
2022-10-09T09:15:10.695Z,3.30
2022-10-09T09:17:46.144Z,3.13
2022-10-09T09:20:18.863Z,3.00
2022-10-09T09:22:49.387Z,3.00
2022-10-09T09:25:23.311Z,2.90
2022-10-09T09:27:54.041Z,2.77
2022-10-09T09:30:32.394Z,2.80
2022-10-09T09:33:05.702Z,2.83
2022-10-09T09:35:37.995Z,2.97
2022-10-09T09:38:05.782Z,2.90
2022-10-09T09:40:37.085Z,2.77
2022-10-09T09:43:15.826Z,2.60
2022-10-09T09:45:44.202Z,2.90
2022-10-09T09:48:16.476Z,3.00
2022-10-09T09:50:56.403Z,2.70
2022-10-09T09:53:35.358Z,2.47
2022-10-09T09:56:03.550Z,2.80
2022-10-09T09:58:37.265Z,2.50
2022-10-09T10:01:07.685Z,1.98
2022-10-09T10:03:37.104Z,2.40
2022-10-09T10:06:05.262Z,2.57
2022-10-09T10:08:34.919Z,2.50
2022-10-09T10:11:06.219Z,2.30
2022-10-09T10:13:38.758Z,2.20
2022-10-09T10:16:09.267Z,2.27
2022-10-09T10:18:40.970Z,2.10
2022-10-09T10:21:12.992Z,2.50
2022-10-09T10:23:43.653Z,2.50
2022-10-09T10:26:22.576Z,1.83
2022-10-09T10:28:55.881Z,2.20
2022-10-09T10:31:36.124Z,2.10
2022-10-09T10:34:08.681Z,1.93
2022-10-09T10:36:37.492Z,2.43
2022-10-09T10:39:13.198Z,2.20
2022-10-09T10:41:47.755Z,2.10
2022-10-09T10:44:24.210Z,2.00
2022-10-09T10:46:56.214Z,1.93
2022-10-09T10:49:25.472Z,2.27
2022-10-09T10:52:12.282Z,2.00
2022-10-09T10:54:43.570Z,1.57
2022-10-09T10:57:20.890Z,1.80
2022-10-09T10:59:57.949Z,1.53
2022-10-09T11:02:46.605Z,1.73
2022-10-09T11:05:24.014Z,1.80
2022-10-09T11:08:05.291Z,1.60
2022-10-09T11:10:38.196Z,1.30
2022-10-09T11:13:16.330Z,1.63
2022-10-09T11:15:58.539Z,1.90
2022-10-09T11:18:40.706Z,1.80
2022-10-09T11:21:33.319Z,1.43
2022-10-09T11:24:24.120Z,1.60
2022-10-09T11:27:03.120Z,1.67
2022-10-09T11:29:37.750Z,1.70
2022-10-09T11:32:13.694Z,1.20
2022-10-09T11:34:48.101Z,1.20
2022-10-09T11:37:19.466Z,1.47
2022-10-09T11:39:47.656Z,1.40
2022-10-09T11:42:21.174Z,1.30
2022-10-09T11:44:54.531Z,1.50
2022-10-09T11:47:31.898Z,1.13
2022-10-09T11:50:17.980Z,1.40
2022-10-09T11:52:55.420Z,1.45
2022-10-09T11:55:25.935Z,1.40
2022-10-09T11:57:53.804Z,1.45
2022-10-09T12:00:32.996Z,1.30
2022-10-09T12:03:05.731Z,1.38
2022-10-09T12:05:39.805Z,1.20
2022-10-09T12:08:12.053Z,1.50
2022-10-09T12:10:49.966Z,1.40
2022-10-09T12:13:31.196Z,1.27
2022-10-09T12:16:00.619Z,1.67
2022-10-09T12:18:33.355Z,1.70
2022-10-09T12:21:05.126Z,1.70
2022-10-09T12:23:35.997Z,1.63
2022-10-09T12:26:05.425Z,1.80
2022-10-09T12:28:37.311Z,1.90
2022-10-09T12:31:08.115Z,1.83
2022-10-09T12:33:41.427Z,1.80
2022-10-09T12:36:15.352Z,1.90
2022-10-09T12:38:43.742Z,2.40
2022-10-09T12:41:20.136Z,2.00
2022-10-09T12:43:49.887Z,1.97
2022-10-09T12:46:27.491Z,1.90
2022-10-09T12:48:57.518Z,1.70
2022-10-09T12:51:28.056Z,1.83
2022-10-09T12:53:56.577Z,2.10
2022-10-09T12:56:28.008Z,2.10
2022-10-09T12:58:57.057Z,1.97
2022-10-09T13:01:25.520Z,1.93
2022-10-09T13:03:57.968Z,2.00
2022-10-09T13:06:27.933Z,1.90
2022-10-09T13:08:58.908Z,2.10
2022-10-09T13:11:33.021Z,2.53
2022-10-09T13:14:01.426Z,2.20
2022-10-09T13:16:40.565Z,2.17
2022-10-09T13:19:23.940Z,2.17
2022-10-09T13:22:02.644Z,2.10
2022-10-09T13:24:30.524Z,2.47
2022-10-09T13:26:58.265Z,2.10
2022-10-09T13:29:25.962Z,2.30
2022-10-09T13:31:53.685Z,1.97
2022-10-09T13:34:24.558Z,2.07
2022-10-09T13:36:52.469Z,2.20
2022-10-09T13:39:20.227Z,2.40
2022-10-09T13:41:52.700Z,2.50
2022-10-09T13:44:20.427Z,2.70
2022-10-09T13:46:48.147Z,2.50
2022-10-09T13:49:15.846Z,2.30
2022-10-09T13:51:44.984Z,2.10
2022-10-09T13:54:12.726Z,1.90
2022-10-09T13:56:40.465Z,2.17
2022-10-09T13:59:08.215Z,2.10
2022-10-09T14:01:36.032Z,2.07
2022-10-09T14:04:03.838Z,2.13
2022-10-09T14:06:31.611Z,2.27
2022-10-09T14:09:00.683Z,1.90
2022-10-09T14:11:28.432Z,2.00
2022-10-09T14:13:58.377Z,1.90
2022-10-09T14:16:26.325Z,2.53
2022-10-09T14:18:56.890Z,2.13
2022-10-09T14:21:24.831Z,2.60
2022-10-09T14:23:54.375Z,2.13
2022-10-09T14:26:24.254Z,2.00
2022-10-09T14:28:52.029Z,2.20
2022-10-09T14:31:20.145Z,2.17
2022-10-09T14:33:49.472Z,2.73
2022-10-09T14:36:20.158Z,2.40
2022-10-09T14:38:49.351Z,2.30
2022-10-09T14:41:18.530Z,2.80
2022-10-09T14:43:48.888Z,1.83
2022-10-09T14:46:18.617Z,2.30
2022-10-09T14:48:48.566Z,2.50
2022-10-09T14:51:17.694Z,2.90
2022-10-09T14:53:45.703Z,2.60
2022-10-09T14:56:15.578Z,2.40
2022-10-09T14:58:43.613Z,2.30
2022-10-09T15:01:15.201Z,2.43
2022-10-09T15:03:43.252Z,2.13
2022-10-09T15:06:12.477Z,2.60
2022-10-09T15:08:42.616Z,3.03
2022-10-09T15:11:12.018Z,3.63
2022-10-09T15:13:40.592Z,3.30
2022-10-09T15:16:10.216Z,4.17
2022-10-09T15:18:39.437Z,4.40
2022-10-09T15:21:13.306Z,3.20
2022-10-09T15:23:41.141Z,3.17
2022-10-09T15:26:09.532Z,3.90
2022-10-09T15:28:37.825Z,4.47
2022-10-09T15:31:07.199Z,4.00
2022-10-09T15:33:35.129Z,3.83
2022-10-09T15:36:05.453Z,4.00
2022-10-09T15:38:33.614Z,3.67
2022-10-09T15:41:01.814Z,3.47
2022-10-09T15:43:29.566Z,3.10
2022-10-09T15:46:03.410Z,3.33
2022-10-09T15:48:31.224Z,3.20
2022-10-09T15:50:58.937Z,3.70
2022-10-09T15:53:28.056Z,3.57
2022-10-09T15:55:55.830Z,3.60
2022-10-09T15:58:23.648Z,3.57
2022-10-09T16:00:51.414Z,3.87
2022-10-09T16:03:19.812Z,4.13
2022-10-09T16:05:50.991Z,4.73
2022-10-09T16:08:20.005Z,5.23
2022-10-09T16:10:52.102Z,5.03
2022-10-09T16:13:20.389Z,6.53
2022-10-09T16:15:49.236Z,5.73
2022-10-09T16:18:18.032Z,5.40
2022-10-09T16:20:46.244Z,5.90
2022-10-09T16:23:14.893Z,7.23
2022-10-09T16:25:44.072Z,6.10
2022-10-09T16:28:13.593Z,5.40
2022-10-09T16:30:42.838Z,5.83
2022-10-09T16:33:12.931Z,6.47
2022-10-09T16:35:41.053Z,6.03
2022-10-09T16:38:09.026Z,7.30
2022-10-09T16:41:01.013Z,7.10
2022-10-09T16:43:26.087Z,6.10
2022-10-09T16:45:53.798Z,5.70
2022-10-09T16:48:21.503Z,5.57
2022-10-09T16:50:49.225Z,4.23
2022-10-09T16:53:16.910Z,4.70
2022-10-09T16:55:44.610Z,4.70
2022-10-09T16:58:12.364Z,3.93
2022-10-09T17:00:41.476Z,3.50
2022-10-09T17:03:09.208Z,4.00
2022-10-09T17:05:39.656Z,5.40
2022-10-09T17:08:07.363Z,5.10
2022-10-09T17:10:35.432Z,6.37
2022-10-09T17:13:03.305Z,7.07
2022-10-09T17:15:31.058Z,6.77
2022-10-09T17:18:00.128Z,8.50
2022-10-09T17:20:27.882Z,10.77
2022-10-09T17:22:55.579Z,22.90
2022-10-09T17:25:23.260Z,32.07
2022-10-09T17:27:51.692Z,23.57
2022-10-09T17:30:19.483Z,17.33
2022-10-09T17:32:47.575Z,10.27
2022-10-09T17:35:17.007Z,11.10
2022-10-09T17:37:44.717Z,13.87
2022-10-09T17:40:12.458Z,13.83
2022-10-09T17:42:40.188Z,14.70
2022-10-09T17:45:09.553Z,16.80
2022-10-09T17:47:38.063Z,16.33
2022-10-09T17:50:06.627Z,13.40
2022-10-09T17:52:35.741Z,11.77
2022-10-09T17:55:03.481Z,8.90
2022-10-09T17:57:31.170Z,9.20
2022-10-09T17:59:58.874Z,9.97
2022-10-09T18:02:26.790Z,11.70
2022-10-09T18:04:57.286Z,12.77
2022-10-09T18:07:25.187Z,11.50
2022-10-09T18:09:54.452Z,12.67
2022-10-09T18:12:22.272Z,9.67
2022-10-09T18:14:50.286Z,7.47
2022-10-09T18:17:18.553Z,6.20
2022-10-09T18:19:46.327Z,5.53
2022-10-09T18:22:14.039Z,5.53
2022-10-09T18:24:41.807Z,7.13
2022-10-09T18:27:10.889Z,8.07
2022-10-09T18:29:38.608Z,8.40
2022-10-09T18:32:06.370Z,8.03
2022-10-09T18:34:38.913Z,9.43
2022-10-09T18:37:07.527Z,10.80
2022-10-09T18:39:35.271Z,8.67
2022-10-09T18:42:04.278Z,6.77
2022-10-09T18:44:40.158Z,5.50
2022-10-09T18:47:12.697Z,4.33
2022-10-09T18:49:44.625Z,5.40
2022-10-09T18:52:13.703Z,6.30
2022-10-09T18:54:43.206Z,5.50
2022-10-09T18:57:11.354Z,4.43
2022-10-09T18:59:41.101Z,4.63
2022-10-09T19:02:09.030Z,4.30
2022-10-09T19:04:36.849Z,4.03
2022-10-09T19:07:04.936Z,4.07
2022-10-09T19:09:32.697Z,3.63
2022-10-09T19:12:00.396Z,4.07
2022-10-09T19:14:28.182Z,5.70
2022-10-09T19:16:57.296Z,7.07
2022-10-09T19:19:25.002Z,6.60
2022-10-09T19:21:53.523Z,6.43
2022-10-09T19:24:21.283Z,6.60
2022-10-09T19:26:48.971Z,5.60
2022-10-09T19:29:16.727Z,5.83
2022-10-09T19:31:44.613Z,5.03
2022-10-09T19:34:13.788Z,5.00
2022-10-09T19:36:43.066Z,4.67
2022-10-09T19:39:11.177Z,4.57
2022-10-09T19:41:41.732Z,3.83
2022-10-09T19:44:09.493Z,3.73
2022-10-09T19:46:38.242Z,4.17
2022-10-09T19:49:07.080Z,4.10
2022-10-09T19:51:37.429Z,4.27
2022-10-09T19:54:07.067Z,3.57
2022-10-09T19:56:36.193Z,4.23
2022-10-09T19:59:06.208Z,4.83
2022-10-09T20:01:38.361Z,5.10
2022-10-09T20:04:08.785Z,5.00
2022-10-09T20:06:39.568Z,5.27
2022-10-09T20:09:08.604Z,5.10
2022-10-09T20:11:36.475Z,4.60
2022-10-09T20:14:05.303Z,5.67
2022-10-09T20:16:33.646Z,6.70
2022-10-09T20:19:02.429Z,6.37
2022-10-09T20:21:31.761Z,5.90
2022-10-09T20:24:01.548Z,7.30
2022-10-09T20:26:31.452Z,6.50
2022-10-09T20:28:59.253Z,6.00
2022-10-09T20:31:28.728Z,6.20
2022-10-09T20:33:56.691Z,6.80
2022-10-09T20:36:27.233Z,6.97
2022-10-09T20:39:01.105Z,6.40
2022-10-09T20:41:30.538Z,8.20
2022-10-09T20:44:00.230Z,8.00
2022-10-09T20:46:30.145Z,7.27
2022-10-09T20:48:58.126Z,6.90
2022-10-09T20:51:26.753Z,6.67
2022-10-09T20:53:56.059Z,6.23
2022-10-09T20:56:27.148Z,6.33
2022-10-09T20:58:55.528Z,5.37
2022-10-09T21:01:23.950Z,5.07
2022-10-09T21:03:52.716Z,4.63
2022-10-09T21:06:22.412Z,6.30
2022-10-09T21:08:50.268Z,7.77
2022-10-09T21:11:19.449Z,7.00
2022-10-09T21:13:49.335Z,7.83
2022-10-09T21:16:19.475Z,7.30
2022-10-09T21:18:47.209Z,7.90
2022-10-09T21:21:17.263Z,7.67
2022-10-09T21:23:45.637Z,6.10
2022-10-09T21:26:14.237Z,6.23
2022-10-09T21:28:42.425Z,6.10
2022-10-09T21:31:13.518Z,5.53
2022-10-09T21:33:41.281Z,5.67
2022-10-09T21:36:11.722Z,5.30
2022-10-09T21:38:39.480Z,5.83
2022-10-09T21:41:07.184Z,5.33
2022-10-09T21:43:34.940Z,5.60
2022-10-09T21:46:02.757Z,5.40
2022-10-09T21:48:31.914Z,5.30
2022-10-09T21:50:59.678Z,5.50
2022-10-09T21:53:27.482Z,4.90
2022-10-09T21:55:55.211Z,4.83
2022-10-09T21:58:22.924Z,5.10
2022-10-09T22:00:56.673Z,5.07
2022-10-09T22:03:25.549Z,8.37
2022-10-09T22:05:54.759Z,6.83
2022-10-09T22:08:23.052Z,12.70
2022-10-09T22:10:50.841Z,13.60
2022-10-09T22:13:19.796Z,16.30
2022-10-09T22:15:50.999Z,16.67
2022-10-09T22:18:19.553Z,13.03
2022-10-09T22:20:49.135Z,9.37
2022-10-09T22:23:19.806Z,7.67
2022-10-09T22:25:56.907Z,4.93
2022-10-09T22:28:24.649Z,6.20
2022-10-09T22:31:02.079Z,4.50
2022-10-09T22:33:30.172Z,4.30
2022-10-09T22:36:09.992Z,4.13
2022-10-09T22:38:40.211Z,4.07
2022-10-09T22:41:10.429Z,4.20
2022-10-09T22:43:39.585Z,3.73
2022-10-09T22:46:09.900Z,3.77
2022-10-09T22:48:37.709Z,4.03
2022-10-09T22:51:06.970Z,3.80
2022-10-09T22:53:35.620Z,4.13
2022-10-09T22:56:06.791Z,3.50
2022-10-09T22:58:34.588Z,3.53
2022-10-09T23:01:04.712Z,3.70
2022-10-09T23:03:32.542Z,3.70
2022-10-09T23:06:07.752Z,3.73
2022-10-09T23:08:35.659Z,3.57
2022-10-09T23:11:03.369Z,3.40
2022-10-09T23:13:32.575Z,3.67
2022-10-09T23:16:00.944Z,3.93
2022-10-09T23:18:29.545Z,3.90
2022-10-09T23:20:57.440Z,3.50
2022-10-09T23:23:25.395Z,3.70
2022-10-09T23:25:53.042Z,3.80
2022-10-09T23:28:21.682Z,3.60
2022-10-09T23:30:50.780Z,3.93
2022-10-09T23:33:18.434Z,4.20
2022-10-09T23:35:46.127Z,3.77
2022-10-09T23:38:13.823Z,3.67
2022-10-09T23:40:41.545Z,4.03
2022-10-09T23:43:09.241Z,3.83
2022-10-09T23:45:40.956Z,4.13
2022-10-09T23:48:10.036Z,4.53
2022-10-09T23:50:37.749Z,4.67
2022-10-09T23:53:05.703Z,4.20
2022-10-09T23:55:33.460Z,4.00
2022-10-09T23:58:01.143Z,4.20
